sensor_id;sensor_type;location;lat;lon;timestamp;pressure;altitude;pressure_sealevel;temperature;humidity
60373;BME280;46216;52.220;5.134;2023-02-11T00:02:25;103564.78;;;7.52;100.00
60373;BME280;46216;52.220;5.134;2023-02-11T00:04:53;103563.03;;;7.49;100.00
60373;BME280;46216;52.220;5.134;2023-02-11T00:07:19;103570.16;;;7.47;100.00
60373;BME280;46216;52.220;5.134;2023-02-11T00:09:44;103571.81;;;7.53;100.00
60373;BME280;46216;52.220;5.134;2023-02-11T00:12:09;103570.91;;;7.55;100.00
60373;BME280;46216;52.220;5.134;2023-02-11T00:14:35;103560.38;;;7.51;100.00
60373;BME280;46216;52.220;5.134;2023-02-11T00:17:00;103547.94;;;7.53;100.00
60373;BME280;46216;52.220;5.134;2023-02-11T00:19:25;103540.03;;;7.51;100.00
60373;BME280;46216;52.220;5.134;2023-02-11T00:21:51;103542.72;;;7.48;100.00
60373;BME280;46216;52.220;5.134;2023-02-11T00:24:16;103547.97;;;7.50;100.00
60373;BME280;46216;52.220;5.134;2023-02-11T00:26:41;103550.72;;;7.45;100.00
60373;BME280;46216;52.220;5.134;2023-02-11T00:29:06;103563.09;;;7.46;100.00
60373;BME280;46216;52.220;5.134;2023-02-11T00:31:32;103561.38;;;7.42;100.00
60373;BME280;46216;52.220;5.134;2023-02-11T00:33:58;103572.03;;;7.39;100.00
60373;BME280;46216;52.220;5.134;2023-02-11T00:36:26;103573.88;;;7.37;100.00
60373;BME280;46216;52.220;5.134;2023-02-11T00:38:53;103585.34;;;7.38;100.00
60373;BME280;46216;52.220;5.134;2023-02-11T00:41:19;103580.91;;;7.38;100.00
60373;BME280;46216;52.220;5.134;2023-02-11T00:43:45;103566.81;;;7.34;100.00
60373;BME280;46216;52.220;5.134;2023-02-11T00:46:11;103570.34;;;7.33;100.00
60373;BME280;46216;52.220;5.134;2023-02-11T00:48:37;103567.00;;;7.24;100.00
60373;BME280;46216;52.220;5.134;2023-02-11T00:51:02;103566.94;;;7.27;100.00
60373;BME280;46216;52.220;5.134;2023-02-11T00:53:29;103567.91;;;7.21;100.00
60373;BME280;46216;52.220;5.134;2023-02-11T00:55:54;103559.94;;;7.20;100.00
60373;BME280;46216;52.220;5.134;2023-02-11T00:58:19;103554.66;;;7.20;100.00
60373;BME280;46216;52.220;5.134;2023-02-11T01:00:46;103556.50;;;7.15;100.00
60373;BME280;46216;52.220;5.134;2023-02-11T01:03:12;103555.63;;;7.13;100.00
60373;BME280;46216;52.220;5.134;2023-02-11T01:05:38;103545.03;;;7.13;100.00
60373;BME280;46216;52.220;5.134;2023-02-11T01:08:03;103535.34;;;7.11;100.00
60373;BME280;46216;52.220;5.134;2023-02-11T01:10:29;103532.72;;;7.08;100.00
60373;BME280;46216;52.220;5.134;2023-02-11T01:12:54;103526.56;;;7.06;100.00
60373;BME280;46216;52.220;5.134;2023-02-11T01:15:21;103531.84;;;7.08;100.00
60373;BME280;46216;52.220;5.134;2023-02-11T01:17:46;103527.41;;;7.10;100.00
60373;BME280;46216;52.220;5.134;2023-02-11T01:20:21;103532.75;;;7.07;100.00
60373;BME280;46216;52.220;5.134;2023-02-11T01:22:47;103534.50;;;7.08;100.00
60373;BME280;46216;52.220;5.134;2023-02-11T01:25:13;103530.16;;;7.02;100.00
60373;BME280;46216;52.220;5.134;2023-02-11T01:27:38;103550.44;;;7.05;100.00
60373;BME280;46216;52.220;5.134;2023-02-11T01:30:05;103559.31;;;7.04;100.00
60373;BME280;46216;52.220;5.134;2023-02-11T01:32:31;103560.19;;;7.04;100.00
60373;BME280;46216;52.220;5.134;2023-02-11T01:34:56;103553.13;;;7.03;100.00
60373;BME280;46216;52.220;5.134;2023-02-11T01:37:22;103550.53;;;7.00;100.00
60373;BME280;46216;52.220;5.134;2023-02-11T01:39:47;103556.72;;;6.99;100.00
60373;BME280;46216;52.220;5.134;2023-02-11T01:42:18;103540.84;;;6.96;100.00
60373;BME280;46216;52.220;5.134;2023-02-11T01:44:44;103554.16;;;6.93;100.00
60373;BME280;46216;52.220;5.134;2023-02-11T01:47:10;103547.16;;;6.86;100.00
60373;BME280;46216;52.220;5.134;2023-02-11T01:49:39;103552.59;;;6.80;100.00
60373;BME280;46216;52.220;5.134;2023-02-11T01:52:19;103556.13;;;6.77;100.00
60373;BME280;46216;52.220;5.134;2023-02-11T01:54:50;103550.84;;;6.76;100.00
60373;BME280;46216;52.220;5.134;2023-02-11T01:57:58;103536.75;;;6.72;100.00
60373;BME280;46216;52.220;5.134;2023-02-11T02:00:33;103547.34;;;6.72;100.00
60373;BME280;46216;52.220;5.134;2023-02-11T02:03:09;103549.16;;;6.70;100.00
60373;BME280;46216;52.220;5.134;2023-02-11T02:05:44;103555.38;;;6.68;100.00
60373;BME280;46216;52.220;5.134;2023-02-11T02:08:32;103553.66;;;6.63;100.00
60373;BME280;46216;52.220;5.134;2023-02-11T02:11:00;103545.78;;;6.59;100.00
60373;BME280;46216;52.220;5.134;2023-02-11T02:13:27;103542.22;;;6.58;100.00
60373;BME280;46216;52.220;5.134;2023-02-11T02:15:56;103543.25;;;6.48;100.00
60373;BME280;46216;52.220;5.134;2023-02-11T02:18:55;103543.25;;;6.48;100.00
60373;BME280;46216;52.220;5.134;2023-02-11T02:32:13;103544.22;;;6.41;100.00
60373;BME280;46216;52.220;5.134;2023-02-11T02:37:20;103527.47;;;6.39;100.00
60373;BME280;46216;52.220;5.134;2023-02-11T02:39:49;103522.13;;;6.44;100.00
60373;BME280;46216;52.220;5.134;2023-02-11T02:42:15;103525.63;;;6.44;100.00
60373;BME280;46216;52.220;5.134;2023-02-11T02:44:47;103523.84;;;6.46;100.00
60373;BME280;46216;52.220;5.134;2023-02-11T02:47:12;103530.88;;;6.50;100.00
60373;BME280;46216;52.220;5.134;2023-02-11T02:49:38;103538.78;;;6.52;100.00
60373;BME280;46216;52.220;5.134;2023-02-11T02:52:35;103543.19;;;6.54;100.00
60373;BME280;46216;52.220;5.134;2023-02-11T02:55:09;103541.41;;;6.56;100.00
60373;BME280;46216;52.220;5.134;2023-02-11T03:00:39;103542.34;;;6.51;100.00
60373;BME280;46216;52.220;5.134;2023-02-11T03:08:18;103532.53;;;6.57;100.00
60373;BME280;46216;52.220;5.134;2023-02-11T03:10:50;103534.31;;;6.55;100.00
60373;BME280;46216;52.220;5.134;2023-02-11T03:13:19;103532.59;;;6.51;100.00
60373;BME280;46216;52.220;5.134;2023-02-11T03:15:50;103520.25;;;6.52;100.00
60373;BME280;46216;52.220;5.134;2023-02-11T03:18:18;103516.78;;;6.45;100.00
60373;BME280;46216;52.220;5.134;2023-02-11T03:20:48;103513.25;;;6.46;100.00
60373;BME280;46216;52.220;5.134;2023-02-11T03:23:18;103514.19;;;6.42;100.00
60373;BME280;46216;52.220;5.134;2023-02-11T03:25:58;103515.09;;;6.38;100.00
60373;BME280;46216;52.220;5.134;2023-02-11T03:28:30;103513.41;;;6.34;100.00
60373;BME280;46216;52.220;5.134;2023-02-11T03:31:16;103510.78;;;6.31;100.00
60373;BME280;46216;52.220;5.134;2023-02-11T03:33:58;103509.97;;;6.26;100.00
60373;BME280;46216;52.220;5.134;2023-02-11T03:36:55;103505.59;;;6.23;100.00
60373;BME280;46216;52.220;5.134;2023-02-11T03:39:23;103511.78;;;6.21;100.00
60373;BME280;46216;52.220;5.134;2023-02-11T03:41:50;103511.81;;;6.18;100.00
60373;BME280;46216;52.220;5.134;2023-02-11T03:44:18;103503.03;;;6.15;100.00
60373;BME280;46216;52.220;5.134;2023-02-11T03:46:49;103494.28;;;6.07;100.00
60373;BME280;46216;52.220;5.134;2023-02-11T03:49:17;103491.66;;;6.04;100.00
60373;BME280;46216;52.220;5.134;2023-02-11T03:51:45;103495.25;;;6.02;100.00
60373;BME280;46216;52.220;5.134;2023-02-11T03:54:15;103501.41;;;6.02;100.00
60373;BME280;46216;52.220;5.134;2023-02-11T03:56:48;103501.41;;;6.02;100.00
60373;BME280;46216;52.220;5.134;2023-02-11T03:59:15;103504.91;;;6.04;100.00
60373;BME280;46216;52.220;5.134;2023-02-11T04:01:40;103504.91;;;6.04;100.00
60373;BME280;46216;52.220;5.134;2023-02-11T04:04:06;103508.44;;;6.06;100.00
60373;BME280;46216;52.220;5.134;2023-02-11T04:06:31;103509.28;;;6.07;100.00
60373;BME280;46216;52.220;5.134;2023-02-11T04:08:56;103503.09;;;6.09;100.00
60373;BME280;46216;52.220;5.134;2023-02-11T04:11:22;103508.34;;;6.11;100.00
60373;BME280;46216;52.220;5.134;2023-02-11T04:13:47;103501.25;;;6.14;100.00
60373;BME280;46216;52.220;5.134;2023-02-11T04:16:13;103498.59;;;6.18;100.00
60373;BME280;46216;52.220;5.134;2023-02-11T04:18:38;103503.91;;;6.16;100.00
60373;BME280;46216;52.220;5.134;2023-02-11T04:21:03;103507.41;;;6.18;100.00
60373;BME280;46216;52.220;5.134;2023-02-11T04:23:29;103494.13;;;6.21;100.00
60373;BME280;46216;52.220;5.134;2023-02-11T04:25:54;103505.59;;;6.23;100.00
60373;BME280;46216;52.220;5.134;2023-02-11T04:28:19;103489.72;;;6.22;100.00
60373;BME280;46216;52.220;5.134;2023-02-11T04:30:45;103513.53;;;6.23;100.00
60373;BME280;46216;52.220;5.134;2023-02-11T04:33:10;103510.00;;;6.23;100.00
60373;BME280;46216;52.220;5.134;2023-02-11T04:35:35;103509.97;;;6.24;100.00
60373;BME280;46216;52.220;5.134;2023-02-11T04:38:01;103517.91;;;6.24;100.00
60373;BME280;46216;52.220;5.134;2023-02-11T04:40:26;103516.13;;;6.29;100.00
60373;BME280;46216;52.220;5.134;2023-02-11T04:42:51;103511.69;;;6.30;100.00
60373;BME280;46216;52.220;5.134;2023-02-11T04:45:17;103518.72;;;6.31;100.00
60373;BME280;46216;52.220;5.134;2023-02-11T04:47:42;103527.53;;;6.36;100.00
60373;BME280;46216;52.220;5.134;2023-02-11T04:50:08;103524.84;;;6.37;100.00
60373;BME280;46216;52.220;5.134;2023-02-11T04:52:33;103532.78;;;6.39;100.00
60373;BME280;46216;52.220;5.134;2023-02-11T04:54:59;103531.84;;;6.43;100.00
60373;BME280;46216;52.220;5.134;2023-02-11T04:57:24;103530.97;;;6.41;100.00
60373;BME280;46216;52.220;5.134;2023-02-11T04:59:50;103537.97;;;6.45;100.00
60373;BME280;46216;52.220;5.134;2023-02-11T05:02:15;103535.38;;;6.44;100.00
60373;BME280;46216;52.220;5.134;2023-02-11T05:04:40;103536.22;;;6.44;100.00
60373;BME280;46216;52.220;5.134;2023-02-11T05:07:05;103529.16;;;6.46;100.00
60373;BME280;46216;52.220;5.134;2023-02-11T05:09:31;103528.22;;;6.49;100.00
60373;BME280;46216;52.220;5.134;2023-02-11T05:11:56;103536.16;;;6.49;100.00
60373;BME280;46216;52.220;5.134;2023-02-11T05:14:21;103530.84;;;6.53;100.00
60373;BME280;46216;52.220;5.134;2023-02-11T05:16:47;103529.03;;;6.55;100.00
60373;BME280;46216;52.220;5.134;2023-02-11T05:19:12;103530.84;;;6.53;100.00
60373;BME280;46216;52.220;5.134;2023-02-11T05:21:37;103526.38;;;6.57;100.00
60373;BME280;46216;52.220;5.134;2023-02-11T05:24:03;103536.09;;;6.56;100.00
60373;BME280;46216;52.220;5.134;2023-02-11T05:26:28;103529.84;;;6.60;100.00
60373;BME280;46216;52.220;5.134;2023-02-11T05:28:54;103525.50;;;6.56;100.00
60373;BME280;46216;52.220;5.134;2023-02-11T05:31:20;103533.41;;;6.59;100.00
60373;BME280;46216;52.220;5.134;2023-02-11T05:33:45;103527.16;;;6.63;100.00
60373;BME280;46216;52.220;5.134;2023-02-11T05:36:12;103522.78;;;6.62;100.00
60373;BME280;46216;52.220;5.134;2023-02-11T05:38:38;103523.59;;;6.64;100.00
60373;BME280;46216;52.220;5.134;2023-02-11T05:41:04;103525.34;;;6.66;100.00
60373;BME280;46216;52.220;5.134;2023-02-11T05:43:30;103529.78;;;6.65;100.00
60373;BME280;46216;52.220;5.134;2023-02-11T05:45:55;103530.63;;;6.69;100.00
60373;BME280;46216;52.220;5.134;2023-02-11T05:48:21;103535.88;;;6.72;100.00
60373;BME280;46216;52.220;5.134;2023-02-11T05:50:46;103528.81;;;6.74;100.00
60373;BME280;46216;52.220;5.134;2023-02-11T05:53:12;103533.16;;;6.79;100.00
60373;BME280;46216;52.220;5.134;2023-02-11T05:55:37;103533.06;;;6.84;100.00
60373;BME280;46216;52.220;5.134;2023-02-11T05:58:02;103525.09;;;6.87;100.00
60373;BME280;46216;52.220;5.134;2023-02-11T06:00:28;103518.91;;;6.86;100.00
60373;BME280;46216;52.220;5.134;2023-02-11T06:02:53;103530.34;;;6.90;100.00
60373;BME280;46216;52.220;5.134;2023-02-11T06:05:19;103537.47;;;6.86;100.00
60373;BME280;46216;52.220;5.134;2023-02-11T06:07:44;103543.56;;;6.93;100.00
60373;BME280;46216;52.220;5.134;2023-02-11T06:10:10;103545.28;;;6.96;100.00
60373;BME280;46216;52.220;5.134;2023-02-11T06:12:36;103544.34;;;7.00;100.00
60373;BME280;46216;52.220;5.134;2023-02-11T06:15:03;103547.88;;;7.00;100.00
60373;BME280;46216;52.220;5.134;2023-02-11T06:17:28;103547.00;;;7.00;100.00
60373;BME280;46216;52.220;5.134;2023-02-11T06:19:58;103539.91;;;7.00;100.00
60373;BME280;46216;52.220;5.134;2023-02-11T06:22:24;103540.75;;;7.02;100.00
60373;BME280;46216;52.220;5.134;2023-02-11T06:24:50;103549.63;;;7.01;100.00
60373;BME280;46216;52.220;5.134;2023-02-11T06:27:16;103551.31;;;7.07;100.00
60373;BME280;46216;52.220;5.134;2023-02-11T06:29:42;103546.88;;;7.06;100.00
60373;BME280;46216;52.220;5.134;2023-02-11T06:32:07;103544.22;;;7.07;100.00
60373;BME280;46216;52.220;5.134;2023-02-11T06:34:33;103544.22;;;7.07;100.00
60373;BME280;46216;52.220;5.134;2023-02-11T06:36:58;103551.25;;;7.11;100.00
60373;BME280;46216;52.220;5.134;2023-02-11T06:39:23;103537.09;;;7.11;100.00
60373;BME280;46216;52.220;5.134;2023-02-11T06:41:49;103538.88;;;7.10;100.00
60373;BME280;46216;52.220;5.134;2023-02-11T06:44:15;103538.03;;;7.10;100.00
60373;BME280;46216;52.220;5.134;2023-02-11T06:46:40;103542.38;;;7.13;100.00
60373;BME280;46216;52.220;5.134;2023-02-11T06:49:06;103545.91;;;7.15;100.00
60373;BME280;46216;52.220;5.134;2023-02-11T06:51:31;103537.03;;;7.16;100.00
60373;BME280;46216;52.220;5.134;2023-02-11T06:53:56;103538.84;;;7.14;100.00
60373;BME280;46216;52.220;5.134;2023-02-11T06:56:23;103542.28;;;7.19;100.00
60373;BME280;46216;52.220;5.134;2023-02-11T06:58:53;103544.84;;;7.23;100.00
60373;BME280;46216;52.220;5.134;2023-02-11T07:01:20;103545.75;;;7.24;100.00
60373;BME280;46216;52.220;5.134;2023-02-11T07:03:45;103544.00;;;7.23;100.00
60373;BME280;46216;52.220;5.134;2023-02-11T07:06:20;103541.28;;;7.26;100.00
60373;BME280;46216;52.220;5.134;2023-02-11T07:08:45;103548.28;;;7.31;100.00
60373;BME280;46216;52.220;5.134;2023-02-11T07:11:30;103555.41;;;7.28;100.00
60373;BME280;46216;52.220;5.134;2023-02-11T07:14:00;103553.59;;;7.30;100.00
60373;BME280;46216;52.220;5.134;2023-02-11T07:16:25;103558.00;;;7.34;100.00
60373;BME280;46216;52.220;5.134;2023-02-11T07:18:51;103559.72;;;7.35;100.00
60373;BME280;46216;52.220;5.134;2023-02-11T07:21:19;103557.09;;;7.33;100.00
60373;BME280;46216;52.220;5.134;2023-02-11T07:23:45;103559.72;;;7.33;100.00
60373;BME280;46216;52.220;5.134;2023-02-11T07:26:22;103561.44;;;7.39;100.00
60373;BME280;46216;52.220;5.134;2023-02-11T07:28:49;103566.72;;;7.41;100.00
60373;BME280;46216;52.220;5.134;2023-02-11T07:31:17;103574.75;;;7.38;100.00
60373;BME280;46216;52.220;5.134;2023-02-11T07:33:43;103572.88;;;7.43;100.00
60373;BME280;46216;52.220;5.134;2023-02-11T07:36:11;103574.63;;;7.44;100.00
60373;BME280;46216;52.220;5.134;2023-02-11T07:38:37;103573.75;;;7.43;100.00
60373;BME280;46216;52.220;5.134;2023-02-11T07:41:05;103579.06;;;7.43;100.00
60373;BME280;46216;52.220;5.134;2023-02-11T07:43:32;103579.00;;;7.46;100.00
60373;BME280;46216;52.220;5.134;2023-02-11T07:45:58;103578.97;;;7.49;100.00
60373;BME280;46216;52.220;5.134;2023-02-11T07:48:23;103578.94;;;7.51;100.00
60373;BME280;46216;52.220;5.134;2023-02-11T07:50:49;103583.34;;;7.52;100.00
60373;BME280;46216;52.220;5.134;2023-02-11T07:53:14;103581.53;;;7.54;100.00
60373;BME280;46216;52.220;5.134;2023-02-11T07:55:41;103577.06;;;7.57;100.00
60373;BME280;46216;52.220;5.134;2023-02-11T07:58:07;103583.25;;;7.58;100.00
60373;BME280;46216;52.220;5.134;2023-02-11T08:00:32;103585.81;;;7.63;100.00
60373;BME280;46216;52.220;5.134;2023-02-11T08:02:57;103586.75;;;7.60;100.00
60373;BME280;46216;52.220;5.134;2023-02-11T08:05:23;103592.84;;;7.67;100.00
60373;BME280;46216;52.220;5.134;2023-02-11T08:07:52;103585.88;;;7.59;100.00
60373;BME280;46216;52.220;5.134;2023-02-11T08:10:18;103586.59;;;7.69;100.00
60373;BME280;46216;52.220;5.134;2023-02-11T08:12:43;103584.78;;;7.73;100.00
60373;BME280;46216;52.220;5.134;2023-02-11T08:15:09;103585.59;;;7.78;100.00
60373;BME280;46216;52.220;5.134;2023-02-11T08:17:35;103592.59;;;7.82;100.00
60373;BME280;46216;52.220;5.134;2023-02-11T08:20:00;103596.06;;;7.84;100.00
60373;BME280;46216;52.220;5.134;2023-02-11T08:22:26;103587.22;;;7.85;100.00
60373;BME280;46216;52.220;5.134;2023-02-11T08:24:51;103591.63;;;7.86;100.00
60373;BME280;46216;52.220;5.134;2023-02-11T08:27:17;103591.63;;;7.86;100.00
60373;BME280;46216;52.220;5.134;2023-02-11T08:29:42;103591.53;;;7.91;100.00
60373;BME280;46216;52.220;5.134;2023-02-11T08:32:07;103584.53;;;7.88;100.00
60373;BME280;46216;52.220;5.134;2023-02-11T08:34:33;103591.53;;;7.91;100.00
60373;BME280;46216;52.220;5.134;2023-02-11T08:36:58;103593.22;;;7.96;100.00
60373;BME280;46216;52.220;5.134;2023-02-11T08:39:23;103602.09;;;7.95;100.00
60373;BME280;46216;52.220;5.134;2023-02-11T08:41:51;103605.63;;;7.94;100.00
60373;BME280;46216;52.220;5.134;2023-02-11T08:44:18;103609.97;;;8.00;100.00
60373;BME280;46216;52.220;5.134;2023-02-11T08:46:44;103610.84;;;8.00;100.00
60373;BME280;46216;52.220;5.134;2023-02-11T08:49:09;103616.16;;;8.02;100.00
60373;BME280;46216;52.220;5.134;2023-02-11T08:51:35;103608.06;;;8.08;100.00
60373;BME280;46216;52.220;5.134;2023-02-11T08:54:01;103608.06;;;8.08;100.00
60373;BME280;46216;52.220;5.134;2023-02-11T08:56:27;103610.59;;;8.14;100.00
60373;BME280;46216;52.220;5.134;2023-02-11T08:58:53;103614.13;;;8.16;100.00
60373;BME280;46216;52.220;5.134;2023-02-11T09:01:22;103618.44;;;8.22;100.00
60373;BME280;46216;52.220;5.134;2023-02-11T09:03:48;103617.53;;;8.23;100.00
60373;BME280;46216;52.220;5.134;2023-02-11T09:06:14;103615.88;;;8.17;100.00
60373;BME280;46216;52.220;5.134;2023-02-11T09:08:42;103620.97;;;8.29;100.00
60373;BME280;46216;52.220;5.134;2023-02-11T09:11:09;103616.56;;;8.27;100.00
60373;BME280;46216;52.220;5.134;2023-02-11T09:13:34;103628.03;;;8.30;100.00
60373;BME280;46216;52.220;5.134;2023-02-11T09:16:02;103629.78;;;8.32;100.00
60373;BME280;46216;52.220;5.134;2023-02-11T09:18:28;103634.09;;;8.40;100.00
60373;BME280;46216;52.220;5.134;2023-02-11T09:21:01;103637.66;;;8.39;100.00
60373;BME280;46216;52.220;5.134;2023-02-11T09:23:27;103636.75;;;8.39;100.00
60373;BME280;46216;52.220;5.134;2023-02-11T09:25:52;103636.63;;;8.46;100.00
60373;BME280;46216;52.220;5.134;2023-02-11T09:28:17;103642.78;;;8.48;100.00
60373;BME280;46216;52.220;5.134;2023-02-11T09:30:43;103649.72;;;8.56;100.00
60373;BME280;46216;52.220;5.134;2023-02-11T09:33:08;103654.28;;;8.49;100.00
60373;BME280;46216;52.220;5.134;2023-02-11T09:35:33;103655.09;;;8.54;100.00
60373;BME280;46216;52.220;5.134;2023-02-11T09:37:59;103650.53;;;8.59;100.00
60373;BME280;46216;52.220;5.134;2023-02-11T09:40:24;103647.88;;;8.61;100.00
60373;BME280;46216;52.220;5.134;2023-02-11T09:42:52;103646.13;;;8.60;100.00
60373;BME280;46216;52.220;5.134;2023-02-11T09:45:26;103647.69;;;8.70;100.00
60373;BME280;46216;52.220;5.134;2023-02-11T09:47:59;103645.97;;;8.67;100.00
60373;BME280;46216;52.220;5.134;2023-02-11T09:50:38;103646.78;;;8.71;100.00
60373;BME280;46216;52.220;5.134;2023-02-11T09:55:42;103661.66;;;8.81;100.00
60373;BME280;46216;52.220;5.134;2023-02-11T09:58:16;103673.97;;;8.87;100.00
60373;BME280;46216;52.220;5.134;2023-02-11T10:00:58;103676.56;;;8.88;100.00
60373;BME280;46216;52.220;5.134;2023-02-11T10:20:03;103696.47;;;9.12;100.00
60373;BME280;46216;52.220;5.134;2023-02-11T10:22:41;103693.78;;;9.14;100.00
60373;BME280;46216;52.220;5.134;2023-02-11T10:25:38;103698.13;;;9.18;100.00
60373;BME280;46216;52.220;5.134;2023-02-11T10:28:14;103699.03;;;9.17;100.00
60373;BME280;46216;52.220;5.134;2023-02-11T10:30:44;103698.94;;;9.21;100.00
60373;BME280;46216;52.220;5.134;2023-02-11T10:33:25;103702.44;;;9.23;100.00
60373;BME280;46216;52.220;5.134;2023-02-11T10:35:52;103710.28;;;9.31;100.00
60373;BME280;46216;52.220;5.134;2023-02-11T10:38:18;103717.28;;;9.35;100.00
60373;BME280;46216;52.220;5.134;2023-02-11T10:40:43;103718.84;;;9.45;100.00
60373;BME280;46216;52.220;5.134;2023-02-11T10:43:14;103715.13;;;9.53;100.00
60373;BME280;46216;52.220;5.134;2023-02-11T10:45:51;103709.75;;;9.56;100.00
60373;BME280;46216;52.220;5.134;2023-02-11T10:53:39;103710.50;;;9.98;100.00
60373;BME280;46216;52.220;5.134;2023-02-11T10:56:06;103704.31;;;9.98;100.00
60373;BME280;46216;52.220;5.134;2023-02-11T10:58:43;103705.84;;;10.08;100.00
60373;BME280;46216;52.220;5.134;2023-02-11T11:01:09;103711.16;;;10.09;100.00
60373;BME280;46216;52.220;5.134;2023-02-11T11:03:49;103702.09;;;10.15;100.00
60373;BME280;46216;52.220;5.134;2023-02-11T11:06:15;103705.00;;;10.06;100.00
60373;BME280;46216;52.220;5.134;2023-02-11T11:08:52;103709.28;;;10.11;100.00
60373;BME280;46216;52.220;5.134;2023-02-11T11:11:20;103698.69;;;10.10;100.00
60373;BME280;46216;52.220;5.134;2023-02-11T11:16:24;103703.81;;;10.17;100.00
60373;BME280;46216;52.220;5.134;2023-02-11T11:24:17;103717.22;;;10.14;100.00
60373;BME280;46216;52.220;5.134;2023-02-11T11:26:47;103714.41;;;10.21;100.00
60373;BME280;46216;52.220;5.134;2023-02-11T11:29:21;103720.44;;;10.29;100.00
60373;BME280;46216;52.220;5.134;2023-02-11T11:31:59;103708.88;;;10.30;100.00
60373;BME280;46216;52.220;5.134;2023-02-11T11:34:35;103722.28;;;10.27;100.00
60373;BME280;46216;52.220;5.134;2023-02-11T11:37:17;103714.03;;;10.36;100.00
60373;BME280;46216;52.220;5.134;2023-02-11T11:39:48;103713.94;;;10.40;100.00
60373;BME280;46216;52.220;5.134;2023-02-11T11:42:25;103723.69;;;10.41;100.00
60373;BME280;46216;52.220;5.134;2023-02-11T11:44:57;103718.97;;;10.51;100.00
60373;BME280;46216;52.220;5.134;2023-02-11T11:47:44;103721.84;;;10.44;100.00
60373;BME280;46216;52.220;5.134;2023-02-11T11:50:25;103715.38;;;10.54;100.00
60373;BME280;46216;52.220;5.134;2023-02-11T11:53:06;103715.41;;;10.52;100.00
60373;BME280;46216;52.220;5.134;2023-02-11T11:55:46;103718.94;;;10.53;100.00
60373;BME280;46216;52.220;5.134;2023-02-11T11:58:22;103712.78;;;10.51;100.00
60373;BME280;46216;52.220;5.134;2023-02-11T12:00:57;103716.56;;;10.42;100.00
60373;BME280;46216;52.220;5.134;2023-02-11T12:06:39;103711.19;;;10.44;100.00
60373;BME280;46216;52.220;5.134;2023-02-11T12:09:22;103707.03;;;10.32;100.00
60373;BME280;46216;52.220;5.134;2023-02-11T12:12:05;103706.50;;;10.53;100.00
60373;BME280;46216;52.220;5.134;2023-02-11T12:14:57;103705.72;;;10.50;100.00
60373;BME280;46216;52.220;5.134;2023-02-11T12:17:41;103714.38;;;10.58;100.00
60373;BME280;46216;52.220;5.134;2023-02-11T12:25:16;103696.03;;;10.78;100.00
60373;BME280;46216;52.220;5.134;2023-02-11T12:27:49;103701.13;;;10.87;100.00
60373;BME280;46216;52.220;5.134;2023-02-11T12:30:25;103695.41;;;11.00;100.00
60373;BME280;46216;52.220;5.134;2023-02-11T12:33:02;103691.78;;;11.02;100.00
60373;BME280;46216;52.220;5.134;2023-02-11T12:38:42;103696.28;;;11.00;100.00
60373;BME280;46216;52.220;5.134;2023-02-11T12:47:31;103694.63;;;10.96;100.00
60373;BME280;46216;52.220;5.134;2023-02-11T12:50:03;103693.56;;;11.02;100.00
60373;BME280;46216;52.220;5.134;2023-02-11T12:55:25;103687.78;;;11.17;100.00
60373;BME280;46216;52.220;5.134;2023-02-11T12:57:54;103696.09;;;11.06;100.00
60373;BME280;46216;52.220;5.134;2023-02-11T13:00:23;103696.41;;;10.96;100.00
60373;BME280;46216;52.220;5.134;2023-02-11T13:02:57;103696.81;;;11.13;100.00
60373;BME280;46216;52.220;5.134;2023-02-11T13:05:34;103694.81;;;11.21;100.00
60373;BME280;46216;52.220;5.134;2023-02-11T13:08:12;103695.91;;;11.14;100.00
60373;BME280;46216;52.220;5.134;2023-02-11T13:10:42;103687.44;;;11.29;100.00
60373;BME280;46216;52.220;5.134;2023-02-11T13:13:22;103684.06;;;11.23;100.00
60373;BME280;46216;52.220;5.134;2023-02-11T13:18:31;103678.41;;;11.33;100.00
60373;BME280;46216;52.220;5.134;2023-02-11T13:27:08;103667.34;;;11.16;100.00
60373;BME280;46216;52.220;5.134;2023-02-11T13:37:59;103660.31;;;11.13;100.00
60373;BME280;46216;52.220;5.134;2023-02-11T13:40:33;103661.28;;;11.11;100.00
60373;BME280;46216;52.220;5.134;2023-02-11T13:43:01;103660.69;;;11.01;100.00
60373;BME280;46216;52.220;5.134;2023-02-11T13:45:29;103673.88;;;11.06;100.00
60373;BME280;46216;52.220;5.134;2023-02-11T13:47:59;103665.97;;;11.03;100.00
60373;BME280;46216;52.220;5.134;2023-02-11T13:50:26;103673.72;;;11.12;100.00
60373;BME280;46216;52.220;5.134;2023-02-11T13:53:00;103674.44;;;11.17;100.00
60373;BME280;46216;52.220;5.134;2023-02-11T13:55:26;103676.06;;;11.23;100.00
60373;BME280;46216;52.220;5.134;2023-02-11T14:11:45;103662.47;;;11.30;100.00
60373;BME280;46216;52.220;5.134;2023-02-11T14:19:37;103680.03;;;11.37;100.00
60373;BME280;46216;52.220;5.134;2023-02-11T14:24:55;103672.25;;;11.31;100.00
60373;BME280;46216;52.220;5.134;2023-02-11T14:27:39;103674.00;;;11.31;100.00
60373;BME280;46216;52.220;5.134;2023-02-11T14:33:29;103672.78;;;11.43;100.00
60373;BME280;46216;52.220;5.134;2023-02-11T14:39:14;103677.75;;;11.25;100.00
60373;BME280;46216;52.220;5.134;2023-02-11T14:41:46;103677.88;;;11.21;100.00
60373;BME280;46216;52.220;5.134;2023-02-11T14:44:19;103682.34;;;11.20;100.00
60373;BME280;46216;52.220;5.134;2023-02-11T14:46:48;103673.44;;;11.21;100.00
60373;BME280;46216;52.220;5.134;2023-02-11T14:51:51;103680.78;;;11.13;100.00
60373;BME280;46216;52.220;5.134;2023-02-11T14:54:21;103690.59;;;11.12;100.00
60373;BME280;46216;52.220;5.134;2023-02-11T14:57:12;103683.50;;;11.11;100.00
60373;BME280;46216;52.220;5.134;2023-02-11T14:59:38;103689.53;;;11.18;100.00
60373;BME280;46216;52.220;5.134;2023-02-11T15:02:22;103686.03;;;11.16;100.00